createdAt,value
2023-05-15T00:01:20.214Z,3.40
2023-05-15T00:03:47.466Z,3.75
2023-05-15T00:06:14.712Z,3.20
2023-05-15T00:08:41.566Z,3.88
2023-05-15T00:11:08.598Z,3.42
2023-05-15T00:13:35.531Z,3.72
2023-05-15T00:16:02.493Z,3.85
2023-05-15T00:18:29.356Z,3.17
2023-05-15T00:20:56.219Z,3.22
2023-05-15T00:23:23.114Z,3.50
2023-05-15T00:25:50.071Z,3.50
2023-05-15T00:28:16.849Z,3.47
2023-05-15T00:30:43.697Z,3.88
2023-05-15T00:33:10.523Z,3.65
2023-05-15T00:35:37.372Z,4.13
2023-05-15T00:38:04.216Z,3.83
2023-05-15T00:40:32.143Z,3.97
2023-05-15T00:43:00.666Z,4.22
2023-05-15T00:45:28.486Z,4.15
2023-05-15T00:47:57.662Z,3.83
2023-05-15T00:50:25.725Z,4.63
2023-05-15T00:52:53.022Z,4.20
2023-05-15T00:55:19.914Z,4.32
2023-05-15T00:57:48.910Z,4.63
2023-05-15T01:00:18.404Z,4.65
2023-05-15T01:02:46.393Z,4.78
2023-05-15T01:05:13.682Z,5.10
2023-05-15T01:07:57.667Z,4.72
2023-05-15T01:10:24.585Z,4.15
2023-05-15T01:12:54.622Z,4.57
2023-05-15T01:15:21.714Z,4.45
2023-05-15T01:17:49.999Z,4.40
2023-05-15T01:20:18.948Z,4.28
2023-05-15T01:22:54.773Z,4.50
2023-05-15T01:25:36.737Z,4.38
2023-05-15T01:28:12.041Z,4.78
2023-05-15T01:30:41.955Z,4.03
2023-05-15T01:33:22.735Z,4.22
2023-05-15T01:36:06.407Z,3.75
2023-05-15T01:38:42.429Z,3.78
2023-05-15T01:41:28.333Z,3.67
2023-05-15T01:44:07.010Z,3.78
2023-05-15T01:46:38.348Z,3.92
2023-05-15T01:49:11.219Z,4.75
2023-05-15T01:51:40.549Z,4.28
2023-05-15T01:54:08.874Z,3.95
2023-05-15T01:56:37.931Z,3.85
2023-05-15T01:59:05.532Z,4.20
2023-05-15T02:01:34.577Z,3.55
2023-05-15T02:04:03.672Z,4.50
2023-05-15T02:06:32.447Z,4.50
2023-05-15T02:09:02.330Z,4.47
2023-05-15T02:11:30.755Z,4.40
2023-05-15T02:13:59.011Z,4.45
2023-05-15T02:16:26.037Z,5.88
2023-05-15T02:18:53.061Z,4.63
2023-05-15T02:21:20.194Z,4.90
2023-05-15T02:23:47.099Z,4.40
2023-05-15T02:26:35.522Z,4.72
2023-05-15T02:29:21.239Z,4.60
2023-05-15T02:32:10.192Z,5.68
2023-05-15T02:34:58.852Z,5.25
2023-05-15T02:37:31.588Z,4.82
2023-05-15T02:40:00.378Z,4.57
2023-05-15T02:42:29.457Z,4.85
2023-05-15T02:44:58.025Z,4.57
2023-05-15T02:47:26.696Z,4.65
2023-05-15T02:49:55.037Z,4.57
2023-05-15T02:52:26.260Z,5.38
2023-05-15T02:54:53.561Z,4.82
2023-05-15T02:57:20.547Z,4.80
2023-05-15T02:59:47.482Z,5.00
2023-05-15T03:02:14.283Z,4.38
2023-05-15T03:04:41.236Z,5.47
2023-05-15T03:07:08.172Z,5.15
2023-05-15T03:09:34.951Z,4.70
2023-05-15T03:12:01.719Z,4.80
2023-05-15T03:14:28.713Z,4.40
2023-05-15T03:16:55.755Z,4.80
2023-05-15T03:19:22.674Z,5.30
2023-05-15T03:21:49.549Z,5.07
2023-05-15T03:24:16.461Z,4.43
2023-05-15T03:26:45.017Z,4.80
2023-05-15T03:29:12.080Z,4.30
2023-05-15T03:31:38.912Z,5.20
2023-05-15T03:34:05.874Z,4.55
2023-05-15T03:36:32.688Z,5.20
2023-05-15T03:38:59.580Z,4.93
2023-05-15T03:41:27.912Z,5.15
2023-05-15T03:43:54.714Z,4.68
2023-05-15T03:46:21.688Z,5.28
2023-05-15T03:48:48.503Z,4.80
2023-05-15T03:51:15.491Z,4.60
2023-05-15T03:53:42.267Z,5.30
2023-05-15T03:56:09.219Z,5.55
2023-05-15T03:58:36.045Z,5.10
2023-05-15T04:01:02.870Z,5.20
2023-05-15T04:03:29.759Z,4.53
2023-05-15T04:05:56.690Z,5.72
2023-05-15T04:08:23.676Z,5.32
2023-05-15T04:10:50.972Z,5.90
2023-05-15T04:13:17.963Z,5.78
2023-05-15T04:15:44.773Z,7.80
2023-05-15T04:18:11.648Z,6.13
2023-05-15T04:20:38.437Z,5.00
2023-05-15T04:23:05.783Z,5.05
2023-05-15T04:25:32.842Z,5.45
2023-05-15T04:27:59.780Z,5.57
2023-05-15T04:30:26.813Z,5.60
2023-05-15T04:32:53.982Z,5.13
2023-05-15T04:35:20.872Z,5.60
2023-05-15T04:37:47.917Z,5.50
2023-05-15T04:40:17.551Z,5.53
2023-05-15T04:42:44.510Z,5.85
2023-05-15T04:45:11.513Z,7.03
2023-05-15T04:47:38.532Z,5.60
2023-05-15T04:50:06.764Z,6.35
2023-05-15T04:52:33.921Z,6.22
2023-05-15T04:55:00.836Z,5.90
2023-05-15T04:57:28.439Z,6.10
2023-05-15T04:59:55.319Z,5.55
2023-05-15T05:02:23.160Z,5.93
2023-05-15T05:04:50.424Z,6.05
2023-05-15T05:07:17.504Z,6.70
2023-05-15T05:09:44.462Z,5.65
2023-05-15T05:12:11.531Z,5.85
2023-05-15T05:14:40.500Z,5.82
2023-05-15T05:17:07.466Z,5.68
2023-05-15T05:19:34.336Z,5.57
2023-05-15T05:22:04.736Z,6.45
2023-05-15T05:24:32.197Z,6.07
2023-05-15T05:26:59.244Z,5.45
2023-05-15T05:29:26.214Z,5.40
2023-05-15T05:31:53.563Z,6.50
2023-05-15T05:34:20.600Z,6.28
2023-05-15T05:36:47.643Z,5.72
2023-05-15T05:39:16.654Z,5.97
2023-05-15T05:41:48.000Z,5.63
2023-05-15T05:44:14.996Z,5.82
2023-05-15T05:46:42.997Z,6.22
2023-05-15T05:49:09.914Z,6.88
2023-05-15T05:51:37.046Z,5.90
2023-05-15T05:54:04.055Z,5.97
2023-05-15T05:56:31.014Z,6.15
2023-05-15T05:58:59.555Z,6.20
2023-05-15T06:01:27.830Z,6.35
2023-05-15T06:03:55.911Z,5.80
2023-05-15T06:06:23.147Z,5.97
2023-05-15T06:08:49.984Z,6.00
2023-05-15T06:11:16.944Z,6.03
2023-05-15T06:13:43.743Z,5.70
2023-05-15T06:16:10.592Z,6.00
2023-05-15T06:18:37.473Z,5.72
2023-05-15T06:21:04.442Z,5.55
2023-05-15T06:23:31.469Z,6.15
2023-05-15T06:25:58.299Z,5.70
2023-05-15T06:28:25.178Z,6.75
2023-05-15T06:30:52.818Z,6.35
2023-05-15T06:33:21.721Z,5.53
2023-05-15T06:35:48.639Z,7.07
2023-05-15T06:38:15.455Z,6.38
2023-05-15T06:40:42.244Z,5.80
2023-05-15T06:43:09.328Z,5.75
2023-05-15T06:45:36.218Z,5.75
2023-05-15T06:48:03.165Z,5.63
2023-05-15T06:50:30.144Z,5.90
2023-05-15T06:52:56.981Z,5.50
2023-05-15T06:55:23.921Z,6.28
2023-05-15T06:57:50.905Z,5.90
2023-05-15T07:00:18.076Z,5.47
2023-05-15T07:02:44.999Z,5.90
2023-05-15T07:05:11.950Z,5.40
2023-05-15T07:07:38.804Z,5.57
2023-05-15T07:10:06.766Z,6.30
2023-05-15T07:12:34.218Z,5.72
2023-05-15T07:15:01.132Z,6.07
2023-05-15T07:17:28.127Z,6.07
2023-05-15T07:19:55.073Z,5.68
2023-05-15T07:22:21.930Z,5.88
2023-05-15T07:24:48.816Z,6.07
2023-05-15T07:27:15.618Z,5.82
2023-05-15T07:29:42.448Z,6.13
2023-05-15T07:32:09.332Z,6.07
2023-05-15T07:34:36.166Z,6.07
2023-05-15T07:37:02.941Z,6.60
2023-05-15T07:39:29.967Z,6.63
2023-05-15T07:41:56.812Z,6.65
2023-05-15T07:44:23.581Z,5.88
2023-05-15T07:46:50.523Z,6.47
2023-05-15T07:49:17.297Z,5.63
2023-05-15T07:51:44.260Z,6.25
2023-05-15T07:54:11.086Z,5.85
2023-05-15T07:56:38.724Z,5.75
2023-05-15T07:59:05.515Z,6.57
2023-05-15T08:01:32.871Z,6.53
2023-05-15T08:04:00.384Z,6.72
2023-05-15T08:06:27.253Z,7.07
2023-05-15T08:08:54.229Z,7.20
2023-05-15T08:11:22.070Z,6.30
2023-05-15T08:13:49.079Z,5.88
2023-05-15T08:16:16.064Z,6.43
2023-05-15T08:18:43.375Z,6.43
2023-05-15T08:21:11.178Z,6.22
2023-05-15T08:23:38.512Z,6.18
2023-05-15T08:26:05.520Z,6.15
2023-05-15T08:28:33.595Z,6.18
2023-05-15T08:31:00.594Z,7.00
2023-05-15T08:33:27.400Z,6.03
2023-05-15T08:35:54.329Z,6.93
2023-05-15T08:38:22.566Z,6.45
2023-05-15T08:40:51.090Z,6.47
2023-05-15T08:43:18.590Z,7.07
2023-05-15T08:45:46.099Z,6.78
2023-05-15T08:48:16.540Z,7.18
2023-05-15T08:50:44.672Z,6.68
2023-05-15T08:53:13.329Z,7.45
2023-05-15T08:55:41.573Z,6.95
2023-05-15T08:58:09.029Z,6.97
2023-05-15T09:00:36.171Z,6.53
2023-05-15T09:03:03.571Z,6.78
2023-05-15T09:05:30.829Z,6.55
2023-05-15T09:08:03.921Z,6.90
2023-05-15T09:10:31.683Z,7.07
2023-05-15T09:13:01.714Z,6.32
2023-05-15T09:15:30.039Z,6.90
2023-05-15T09:17:57.608Z,6.68
2023-05-15T09:20:32.668Z,7.00
2023-05-15T09:23:01.887Z,6.72
2023-05-15T09:25:42.706Z,6.80
2023-05-15T09:28:11.495Z,6.35
2023-05-15T09:30:39.333Z,5.97
2023-05-15T09:33:06.275Z,5.45
2023-05-15T09:35:37.992Z,5.15
2023-05-15T09:38:10.249Z,5.45
2023-05-15T09:40:38.427Z,4.70
2023-05-15T09:43:05.485Z,4.50
2023-05-15T09:45:32.403Z,4.18
2023-05-15T09:48:05.814Z,4.25
2023-05-15T09:50:37.701Z,4.53
2023-05-15T09:53:05.220Z,4.10
2023-05-15T09:55:36.236Z,3.67
2023-05-15T09:58:09.145Z,3.88
2023-05-15T10:00:48.768Z,3.53
2023-05-15T10:03:19.966Z,3.83
2023-05-15T10:08:15.016Z,3.42
2023-05-15T10:10:42.566Z,3.83
2023-05-15T10:13:10.613Z,4.10
2023-05-15T10:15:38.324Z,4.43
2023-05-15T10:18:05.410Z,4.20
2023-05-15T10:20:35.420Z,4.10
2023-05-15T10:23:04.769Z,3.67
2023-05-15T10:26:00.749Z,4.22
2023-05-15T10:28:29.206Z,4.03
2023-05-15T10:30:59.941Z,4.07
2023-05-15T10:33:27.945Z,3.88
2023-05-15T10:35:56.708Z,4.45
2023-05-15T10:38:24.944Z,3.70
2023-05-15T10:40:59.795Z,3.90
2023-05-15T10:43:30.667Z,4.18
2023-05-15T10:45:58.358Z,4.03
2023-05-15T10:48:26.407Z,4.47
2023-05-15T10:50:53.346Z,3.63
2023-05-15T10:53:20.926Z,3.50
2023-05-15T10:55:49.896Z,3.88
2023-05-15T10:58:16.825Z,3.70
2023-05-15T11:00:45.419Z,3.67
2023-05-15T11:03:16.595Z,4.63
2023-05-15T11:06:10.035Z,3.40
2023-05-15T11:08:38.899Z,4.03
2023-05-15T11:11:06.098Z,3.72
2023-05-15T11:14:07.995Z,3.72
2023-05-15T11:17:07.960Z,3.63
2023-05-15T11:19:36.082Z,3.40
2023-05-15T11:22:08.929Z,3.72
2023-05-15T11:24:49.150Z,3.70
2023-05-15T11:27:24.393Z,3.53
2023-05-15T11:30:13.002Z,3.47
2023-05-15T11:33:02.384Z,2.80
2023-05-15T11:35:38.139Z,2.80
2023-05-15T11:38:18.037Z,3.38
2023-05-15T11:40:48.977Z,3.65
2023-05-15T11:43:26.740Z,3.22
2023-05-15T11:46:09.661Z,3.10
2023-05-15T11:48:36.969Z,3.55
2023-05-15T11:51:04.567Z,3.30
2023-05-15T11:53:33.002Z,3.22
2023-05-15T11:56:00.226Z,4.47
2023-05-15T11:58:27.326Z,3.38
2023-05-15T12:00:54.810Z,3.60
2023-05-15T12:03:25.094Z,4.28
2023-05-15T12:05:58.253Z,4.00
2023-05-15T12:08:31.908Z,3.85
2023-05-15T12:10:59.479Z,3.60
2023-05-15T12:13:26.600Z,3.50
2023-05-15T12:15:55.322Z,3.80
2023-05-15T12:18:22.409Z,3.63
2023-05-15T12:20:52.639Z,3.55
2023-05-15T12:25:50.849Z,3.88
2023-05-15T12:28:18.052Z,7.32
2023-05-15T12:30:45.556Z,3.80
2023-05-15T12:33:12.724Z,3.60
2023-05-15T12:35:45.096Z,4.38
2023-05-15T12:38:16.671Z,3.90
2023-05-15T12:40:46.720Z,3.83
2023-05-15T12:43:14.808Z,3.47
2023-05-15T12:45:42.593Z,3.70
2023-05-15T12:48:16.397Z,3.58
2023-05-15T12:50:45.165Z,4.15
2023-05-15T12:53:16.865Z,4.15
2023-05-15T12:55:47.206Z,3.70
2023-05-15T13:00:46.110Z,4.70
2023-05-15T13:03:14.148Z,3.85
2023-05-15T13:05:45.316Z,3.92
2023-05-15T13:08:17.460Z,4.20
2023-05-15T13:10:45.723Z,4.60
2023-05-15T13:13:13.022Z,5.45
2023-05-15T13:15:43.612Z,4.90
2023-05-15T13:18:13.334Z,4.30
2023-05-15T13:20:58.282Z,4.35
2023-05-15T13:23:25.049Z,4.30
2023-05-15T13:25:51.911Z,4.47
2023-05-15T13:28:18.686Z,4.28
2023-05-15T13:30:45.727Z,4.25
2023-05-15T13:33:13.375Z,4.68
2023-05-15T13:35:42.953Z,4.75
2023-05-15T13:38:11.700Z,4.65
2023-05-15T13:40:39.238Z,4.28
2023-05-15T13:43:06.697Z,4.05
2023-05-15T13:45:34.084Z,4.07
2023-05-15T13:48:01.400Z,4.25
2023-05-15T13:50:28.422Z,4.05
2023-05-15T13:52:56.052Z,4.03
2023-05-15T13:55:23.482Z,4.10
2023-05-15T13:57:51.607Z,4.40
2023-05-15T14:00:19.707Z,4.63
2023-05-15T14:02:46.780Z,5.35
2023-05-15T14:05:15.006Z,4.43
2023-05-15T14:07:42.646Z,4.30
2023-05-15T14:10:10.669Z,4.30
2023-05-15T14:12:38.704Z,3.95
2023-05-15T14:15:06.114Z,4.32
2023-05-15T14:17:33.009Z,4.15
2023-05-15T14:19:59.880Z,4.55
2023-05-15T14:22:26.780Z,4.03
2023-05-15T14:24:53.946Z,3.70
2023-05-15T14:27:20.897Z,3.80
2023-05-15T14:29:49.194Z,3.88
2023-05-15T14:32:17.177Z,3.72
2023-05-15T14:34:44.540Z,3.15
2023-05-15T14:37:11.642Z,3.30
2023-05-15T14:39:38.580Z,3.45
2023-05-15T14:42:06.373Z,2.88
2023-05-15T14:44:34.128Z,3.25
2023-05-15T14:47:16.254Z,3.13
2023-05-15T14:49:43.108Z,3.05
2023-05-15T14:52:11.050Z,3.20
2023-05-15T14:54:39.082Z,3.10
2023-05-15T14:57:07.071Z,2.55
2023-05-15T14:59:34.104Z,3.10
2023-05-15T15:02:01.742Z,3.83
2023-05-15T15:04:33.954Z,3.72
2023-05-15T15:07:04.225Z,3.80
2023-05-15T15:11:58.041Z,3.90
2023-05-15T15:14:24.968Z,3.70
2023-05-15T15:16:52.592Z,3.00
2023-05-15T15:19:20.369Z,4.65
2023-05-15T15:21:47.908Z,4.45
2023-05-15T15:24:15.142Z,4.55
2023-05-15T15:26:42.331Z,4.32
2023-05-15T15:29:09.188Z,4.85
2023-05-15T15:31:36.108Z,4.40
2023-05-15T15:34:05.352Z,3.97
2023-05-15T15:36:37.422Z,3.55
2023-05-15T15:39:04.414Z,3.53
2023-05-15T15:41:31.631Z,3.17
2023-05-15T15:43:58.561Z,3.03
2023-05-15T15:46:25.789Z,2.80
2023-05-15T15:48:53.023Z,2.70
2023-05-15T15:51:19.847Z,2.88
2023-05-15T15:53:47.110Z,2.92
2023-05-15T15:56:13.998Z,3.50
2023-05-15T15:58:40.848Z,3.60
2023-05-15T16:01:07.826Z,3.65
2023-05-15T16:03:34.853Z,2.90
2023-05-15T16:06:01.844Z,3.33
2023-05-15T16:08:29.058Z,3.20
2023-05-15T16:10:55.999Z,3.83
2023-05-15T16:13:22.883Z,3.30
2023-05-15T16:15:49.781Z,3.42
2023-05-15T16:18:16.703Z,3.50
2023-05-15T16:20:43.830Z,3.47
2023-05-15T16:23:14.989Z,3.95
2023-05-15T16:25:43.100Z,3.60
2023-05-15T16:28:10.250Z,4.43
2023-05-15T16:30:48.250Z,3.75
2023-05-15T16:33:17.905Z,4.40
2023-05-15T16:35:45.793Z,3.35
2023-05-15T16:38:13.320Z,3.90
2023-05-15T16:40:40.340Z,3.30
2023-05-15T16:43:07.700Z,3.25
2023-05-15T16:45:34.825Z,3.03
2023-05-15T16:48:01.962Z,4.03
2023-05-15T16:50:35.502Z,3.55
2023-05-15T16:53:02.678Z,3.78
2023-05-15T16:55:29.856Z,3.63
2023-05-15T16:57:56.989Z,3.25
2023-05-15T17:00:24.403Z,12.88
2023-05-15T17:02:51.924Z,4.47
2023-05-15T17:05:19.042Z,13.13
2023-05-15T17:07:46.118Z,10.30
2023-05-15T17:10:13.723Z,5.20
2023-05-15T17:12:40.954Z,6.55
2023-05-15T17:15:08.140Z,4.50
2023-05-15T17:17:35.034Z,3.80
2023-05-15T17:20:03.027Z,5.95
2023-05-15T17:22:30.509Z,5.35
2023-05-15T17:24:57.816Z,5.13
2023-05-15T17:27:24.765Z,5.97
2023-05-15T17:29:51.924Z,5.93
2023-05-15T17:32:19.306Z,5.97
2023-05-15T17:34:46.455Z,6.03
2023-05-15T17:37:13.739Z,6.47
2023-05-15T17:39:40.697Z,5.32
2023-05-15T17:42:07.655Z,6.28
2023-05-15T17:44:34.537Z,5.15
2023-05-15T17:47:01.737Z,4.97
2023-05-15T17:49:28.636Z,6.10
2023-05-15T17:51:56.079Z,5.22
2023-05-15T17:54:22.966Z,4.72
2023-05-15T17:56:49.820Z,4.53
2023-05-15T17:59:16.746Z,4.65
2023-05-15T18:01:43.689Z,4.50
2023-05-15T18:04:10.751Z,4.30
2023-05-15T18:06:38.407Z,4.47
2023-05-15T18:09:05.310Z,4.25
2023-05-15T18:11:32.423Z,4.63
2023-05-15T18:13:59.548Z,4.43
2023-05-15T18:16:26.557Z,4.47
2023-05-15T18:18:53.800Z,5.53
2023-05-15T18:21:20.730Z,4.82
2023-05-15T18:23:47.628Z,5.93
2023-05-15T18:26:14.634Z,4.45
2023-05-15T18:28:41.748Z,4.95
2023-05-15T18:31:08.725Z,4.90
2023-05-15T18:33:35.707Z,5.22
2023-05-15T18:36:03.669Z,4.95
2023-05-15T18:38:31.580Z,5.32
2023-05-15T18:40:58.404Z,4.75
2023-05-15T18:43:25.322Z,5.45
2023-05-15T18:45:52.262Z,5.22
2023-05-15T18:48:19.160Z,5.07
2023-05-15T18:50:46.061Z,5.65
2023-05-15T18:53:13.022Z,4.95
2023-05-15T18:55:39.925Z,5.72
2023-05-15T18:58:06.918Z,4.75
2023-05-15T19:00:38.690Z,4.80
2023-05-15T19:03:09.393Z,5.50
2023-05-15T19:05:36.396Z,5.93
2023-05-15T19:08:04.267Z,5.28
2023-05-15T19:10:31.368Z,5.30
2023-05-15T19:12:58.709Z,5.97
2023-05-15T19:15:25.950Z,4.93
2023-05-15T19:17:52.928Z,5.25
2023-05-15T19:20:20.796Z,5.50
2023-05-15T19:22:47.691Z,5.70
2023-05-15T19:25:14.673Z,5.75
2023-05-15T19:31:30.621Z,5.70
2023-05-15T19:33:58.860Z,5.30
2023-05-15T19:36:25.932Z,5.57
2023-05-15T19:38:52.898Z,6.03
2023-05-15T19:41:19.830Z,5.50
2023-05-15T19:43:50.464Z,5.95
2023-05-15T19:46:17.914Z,5.40
2023-05-15T19:48:45.304Z,5.95
2023-05-15T19:51:12.555Z,6.25
2023-05-15T19:53:39.446Z,5.70
2023-05-15T19:56:06.509Z,5.85
2023-05-15T19:58:33.448Z,5.50
2023-05-15T20:01:00.276Z,6.15
2023-05-15T20:03:32.821Z,6.03
2023-05-15T20:06:01.289Z,5.75
2023-05-15T20:08:28.987Z,7.03
2023-05-15T20:10:56.117Z,7.68
2023-05-15T20:13:23.695Z,6.78
2023-05-15T20:15:56.970Z,6.88
2023-05-15T20:18:25.298Z,6.20
2023-05-15T20:20:53.105Z,6.55
2023-05-15T20:23:20.782Z,6.15
2023-05-15T20:25:49.296Z,6.15
2023-05-15T20:28:17.707Z,5.78
2023-05-15T20:30:47.381Z,6.15
2023-05-15T20:33:14.687Z,5.70
2023-05-15T20:35:43.484Z,6.97
2023-05-15T20:38:11.898Z,5.72
2023-05-15T20:40:39.158Z,6.20
2023-05-15T20:43:06.030Z,7.35
2023-05-15T20:45:32.996Z,6.53
2023-05-15T20:47:59.970Z,6.53
2023-05-15T20:50:27.162Z,6.03
2023-05-15T20:52:54.514Z,7.38
2023-05-15T20:55:21.697Z,6.68
2023-05-15T20:57:49.529Z,6.75
2023-05-15T21:00:18.271Z,6.30
2023-05-15T21:02:46.890Z,7.30
2023-05-15T21:05:14.119Z,7.50
2023-05-15T21:07:41.025Z,6.80
2023-05-15T21:10:08.620Z,6.93
2023-05-15T21:12:35.601Z,6.32
2023-05-15T21:15:04.263Z,6.40
2023-05-15T21:17:31.111Z,6.43
2023-05-15T21:19:58.542Z,7.00
2023-05-15T21:22:25.762Z,7.05
2023-05-15T21:24:53.081Z,7.65
2023-05-15T21:27:20.014Z,7.25
2023-05-15T21:29:46.860Z,7.85
2023-05-15T21:32:13.696Z,8.23
2023-05-15T21:34:41.057Z,7.53
2023-05-15T21:37:07.939Z,7.95
2023-05-15T21:39:35.011Z,7.63
2023-05-15T21:42:01.882Z,8.63
2023-05-15T21:44:28.808Z,7.53
2023-05-15T21:46:56.999Z,7.32
2023-05-15T21:49:24.624Z,7.03
2023-05-15T21:51:51.492Z,7.57
2023-05-15T21:54:18.436Z,7.88
2023-05-15T21:56:45.308Z,7.72
2023-05-15T21:59:14.102Z,7.82
2023-05-15T22:01:41.484Z,7.90
2023-05-15T22:04:08.621Z,7.43
2023-05-15T22:06:35.699Z,6.30
2023-05-15T22:09:03.026Z,7.20
2023-05-15T22:11:29.878Z,6.65
2023-05-15T22:13:56.736Z,7.50
2023-05-15T22:16:23.681Z,7.65
2023-05-15T22:18:51.156Z,7.45
2023-05-15T22:21:18.035Z,7.32
2023-05-15T22:23:44.978Z,7.10
2023-05-15T22:26:12.000Z,7.40
2023-05-15T22:28:38.858Z,6.90
2023-05-15T22:31:05.801Z,7.00
2023-05-15T22:33:32.656Z,7.38
2023-05-15T22:35:59.540Z,7.38
2023-05-15T22:38:26.353Z,6.93
2023-05-15T22:40:53.764Z,8.60
2023-05-15T22:43:22.113Z,7.93
2023-05-15T22:45:49.100Z,8.02
2023-05-15T22:48:15.969Z,7.20
2023-05-15T22:50:43.979Z,7.30
2023-05-15T22:53:10.861Z,8.27
2023-05-15T22:55:38.192Z,7.10
2023-05-15T22:58:05.352Z,8.40
2023-05-15T23:00:33.372Z,9.65
2023-05-15T23:03:00.357Z,8.50
2023-05-15T23:05:27.824Z,10.60
2023-05-15T23:07:54.658Z,9.55
2023-05-15T23:10:21.887Z,9.18
2023-05-15T23:12:48.744Z,9.93
2023-05-15T23:15:16.318Z,9.43
2023-05-15T23:17:43.336Z,9.98
2023-05-15T23:20:10.678Z,10.15
2023-05-15T23:22:37.587Z,11.00
2023-05-15T23:25:05.415Z,10.00
2023-05-15T23:27:32.516Z,10.07
2023-05-15T23:29:59.430Z,11.90
2023-05-15T23:32:26.295Z,10.63
2023-05-15T23:34:54.882Z,10.98
2023-05-15T23:37:21.725Z,11.57
2023-05-15T23:39:48.687Z,12.85
2023-05-15T23:42:15.733Z,11.55
2023-05-15T23:44:42.541Z,10.82
2023-05-15T23:47:09.515Z,12.15
2023-05-15T23:49:36.426Z,11.50
2023-05-15T23:52:03.314Z,11.30
2023-05-15T23:54:30.168Z,12.40
2023-05-15T23:56:56.987Z,11.15
2023-05-15T23:59:23.898Z,12.15
